Colebrook, Connecticut
Current Conditions -  °F | °C
As of 1:51 PM on Tuesday 21 Oct 2014 (Local Time) from KBDL Reporting Station
Broken Clouds Broken Clouds  
Wind Chill: 61°   Ceiling: 8000
Heat Index: 61°   Visibility: 10mi
Dew Point: 47°   Wind: 7mph
Humidity: 60%   Direction: 350°N
Pressure: 29.89"   Gusts: NA
Location:  41.99°N, 73.1°W
Report Text: KBDL 211751Z 35006KT 10SM FEW040 BKN080 16/08 A2989 RMK AO2 SLP120 T01610083 10172 20078 58015
Loading
Personal Weather Stations






























Interactive Weather Map
Tropical Storm Tracking
New forecast layout! Learn more

10-Day Weather Forecast

Advertisements
Track Severe Weather on mobile